METAR

METAR LDZA 192200Z 00000KT CAVOK 22/18 Q1017 NOSIG =
METAR LDSP 192200Z 36004KT CAVOK 23/21 Q1016 NOSIG=
METAR LDDU 192200Z 24003KT 200V350 CAVOK 26/17 Q1017 =
METAR LDZD 192200Z 00000KT CAVOK 19/17 Q1017 NOSIG =
METAR LDPL 192200Z 06003KT CAVOK 19/17 Q1017=
METAR LDOS 192200Z 36001KT CAVOK 20/17 Q1017=
METAR LDRI 192200Z 25004KT 220V290 CAVOK 22/18 Q1017=

TAF

TAF LDZA 191725Z 1918/2018 VRB02KT CAVOK
                 TX33/2013Z TN17/2003Z=
TAF LDSP 191725Z 1918/2018 VRB02KT CAVOK
                 TX33/2012Z TN21/2004Z
           BECMG 2010/2012 23008KT
           BECMG 2016/2018 34005KT=
TAF LDDU 191725Z 1918/2018 08005KT CAVOK
                 TX30/2011Z TN22/2004Z
           TEMPO 2009/2012 20010KT
           BECMG 2012/2014 29008KT=
TAF LDZD 191725Z 1918/2018 VRB02KT CAVOK
                 TX33/2012Z TN17/2004Z
           BECMG 2010/2012 30010KT
           BECMG 2017/2018 VRB02KT=
TAF COR LDPL 191727Z 1918/2018 08006KT CAVOK
                     TX30/2013Z TN18/2003Z
        PROB30 TEMPO 2011/2016 26007KT=
TAF LDOS 191725Z 1918/2018 11006KT CAVOK
                 TX33/2013Z TN16/2003Z=
TAF AMD LDSB 191605 1916/2012 CNL=
TAF LDRI 191725Z 1918/2018 VRB02KT CAVOK
                 TX30/2013Z TN19/2004Z
           TEMPO 2009/2016 32006KT=

SIGMET

AIRMET

Remark

Ukoliko se brzina i smjer vjetra ne mogu odrediti zbog privremenog kvara sustava/indikatora,
informacija o vjetru u METAR izvješću bit će prikazana kao "/////KT".

 

Disclaimer

 

In case of temporary system/sensor failure, wind speed and direction data will be represented as "/////KT" in METAR report.

 

         

      Politika MET podataka